createdAt,value
2023-04-09T00:01:59.117Z,100524.97
2023-04-09T00:04:27.326Z,100536.22
2023-04-09T00:06:56.874Z,100531.00
2023-04-09T00:09:24.985Z,100538.69
2023-04-09T00:11:53.098Z,100538.69
2023-04-09T00:14:21.365Z,100528.53
2023-04-09T00:16:49.510Z,100533.91
2023-04-09T00:19:17.850Z,100522.75
2023-04-09T00:21:45.944Z,100508.13
2023-04-09T00:24:15.551Z,100513.50
2023-04-09T00:26:44.098Z,100516.53
2023-04-09T00:29:12.129Z,100509.59
2023-04-09T00:31:40.178Z,100510.56
2023-04-09T00:34:08.376Z,100512.75
2023-04-09T00:36:36.712Z,100507.38
2023-04-09T00:39:05.039Z,100502.81
2023-04-09T00:41:34.687Z,100502.97
2023-04-09T00:44:02.818Z,100494.63
2023-04-09T00:46:32.587Z,100498.03
2023-04-09T00:49:01.053Z,100492.41
2023-04-09T00:51:29.749Z,100482.50
2023-04-09T00:53:58.121Z,100478.59
2023-04-09T00:56:27.365Z,100472.63
2023-04-09T00:58:56.963Z,100458.88
2023-04-09T01:01:25.204Z,100457.03
2023-04-09T01:03:53.581Z,100454.03
2023-04-09T01:06:27.981Z,100448.50
2023-04-09T01:09:01.145Z,100443.41
2023-04-09T01:11:36.726Z,100439.69
2023-04-09T01:14:09.970Z,100437.72
2023-04-09T01:16:39.127Z,100438.25
2023-04-09T01:19:23.646Z,100427.47
2023-04-09T01:21:52.234Z,100418.56
2023-04-09T01:24:37.791Z,100429.47
2023-04-09T01:27:07.405Z,100430.47
2023-04-09T01:29:53.314Z,100443.25
2023-04-09T01:32:22.141Z,100443.09
2023-04-09T01:34:50.471Z,100443.78
2023-04-09T01:37:19.610Z,100428.94
2023-04-09T01:39:48.361Z,100418.00
2023-04-09T01:42:17.263Z,100421.88
2023-04-09T01:44:46.644Z,100420.50
2023-04-09T01:47:16.941Z,100429.88
2023-04-09T01:49:46.099Z,100425.47
2023-04-09T01:52:14.566Z,100421.09
2023-04-09T01:54:43.962Z,100410.31
2023-04-09T01:57:12.210Z,100413.88
2023-04-09T01:59:40.492Z,100421.25
2023-04-09T02:02:12.046Z,100425.94
2023-04-09T02:04:42.137Z,100421.72
2023-04-09T02:07:12.114Z,100426.72
2023-04-09T02:09:41.158Z,100433.09
2023-04-09T02:12:13.705Z,100426.41
2023-04-09T02:14:42.588Z,100414.25
2023-04-09T02:17:10.816Z,100413.78
2023-04-09T02:19:44.853Z,100414.41
2023-04-09T02:22:13.472Z,100410.19
2023-04-09T02:24:41.817Z,100401.38
2023-04-09T02:27:10.076Z,100401.38
2023-04-09T02:29:39.684Z,100397.19
2023-04-09T02:32:08.001Z,100388.97
2023-04-09T02:34:36.063Z,100369.19
2023-04-09T02:37:05.966Z,100383.34
2023-04-09T02:39:34.302Z,100375.41
2023-04-09T02:42:02.431Z,100386.81
2023-04-09T02:44:30.715Z,100382.41
2023-04-09T02:46:59.343Z,100396.47
2023-04-09T02:49:27.849Z,100389.94
2023-04-09T02:51:56.207Z,100385.09
2023-04-09T02:54:25.683Z,100383.25
2023-04-09T02:56:53.824Z,100380.72
2023-04-09T02:59:22.130Z,100381.72
2023-04-09T03:01:50.847Z,100370.34
2023-04-09T03:04:19.568Z,100369.47
2023-04-09T03:06:47.998Z,100361.41
2023-04-09T03:09:16.220Z,100360.25
2023-04-09T03:11:45.926Z,100351.50
2023-04-09T03:14:14.540Z,100351.34
2023-04-09T03:16:42.614Z,100350.78
2023-04-09T03:19:10.853Z,100347.13
2023-04-09T03:21:39.023Z,100347.13
2023-04-09T03:24:07.837Z,100341.72
2023-04-09T03:26:38.063Z,100335.34
2023-04-09T03:29:09.556Z,100320.22
2023-04-09T03:31:37.624Z,100318.22
2023-04-09T03:34:05.892Z,100307.47
2023-04-09T03:36:35.029Z,100303.75
2023-04-09T03:39:12.104Z,100288.97
2023-04-09T03:41:43.803Z,100283.28
2023-04-09T03:44:17.464Z,100282.59
2023-04-09T03:47:05.946Z,100268.84
2023-04-09T03:49:36.460Z,100265.16
2023-04-09T03:52:16.488Z,100264.00
2023-04-09T03:54:47.762Z,100261.75
2023-04-09T03:57:20.930Z,100257.59
2023-04-09T03:59:53.439Z,100250.38
2023-04-09T04:02:23.715Z,100252.03
2023-04-09T04:05:00.286Z,100243.81
2023-04-09T04:07:33.887Z,100246.31
2023-04-09T04:10:10.976Z,100245.16
2023-04-09T04:12:43.536Z,100244.13
2023-04-09T04:15:19.995Z,100232.47
2023-04-09T04:17:53.567Z,100231.97
2023-04-09T04:20:30.549Z,100223.91
2023-04-09T04:23:04.485Z,100222.19
2023-04-09T04:25:34.194Z,100224.16
2023-04-09T04:28:03.222Z,100225.03
2023-04-09T04:30:42.244Z,100227.34
2023-04-09T04:33:10.437Z,100230.41
2023-04-09T04:35:52.501Z,100220.13
2023-04-09T04:38:37.825Z,100228.03
2023-04-09T04:41:11.846Z,100216.09
2023-04-09T04:43:43.566Z,100214.59
2023-04-09T04:46:21.806Z,100205.50
2023-04-09T04:48:50.748Z,100206.84
2023-04-09T04:51:19.426Z,100198.75
2023-04-09T04:53:59.732Z,100189.06
2023-04-09T04:56:28.823Z,100194.94
2023-04-09T04:59:08.786Z,100195.78
2023-04-09T05:01:50.860Z,100186.78
2023-04-09T05:04:18.881Z,100188.25
2023-04-09T05:06:46.973Z,100191.28
2023-04-09T05:09:22.229Z,100195.75
2023-04-09T05:12:06.628Z,100189.66
2023-04-09T05:14:36.475Z,100193.03
2023-04-09T05:17:06.430Z,100190.69
2023-04-09T05:19:42.788Z,100199.56
2023-04-09T05:22:12.930Z,100210.78
2023-04-09T05:24:41.263Z,100196.88
2023-04-09T05:27:10.152Z,100193.50
2023-04-09T05:29:38.262Z,100194.34
2023-04-09T05:32:09.908Z,100198.88
2023-04-09T05:34:41.148Z,100204.25
2023-04-09T05:37:09.711Z,100204.13
2023-04-09T05:39:37.781Z,100208.78
2023-04-09T05:42:06.006Z,100202.25
2023-04-09T05:44:51.125Z,100194.03
2023-04-09T05:47:23.264Z,100193.72
2023-04-09T05:50:16.524Z,100196.09
2023-04-09T05:52:45.009Z,100204.88
2023-04-09T05:55:15.640Z,100201.88
2023-04-09T05:57:53.336Z,100197.88
2023-04-09T06:00:23.604Z,100200.25
2023-04-09T06:02:53.516Z,100212.75
2023-04-09T06:05:22.217Z,100211.59
2023-04-09T06:07:50.765Z,100218.50
2023-04-09T06:10:18.996Z,100211.50
2023-04-09T06:12:48.998Z,100210.34
2023-04-09T06:15:17.241Z,100201.47
2023-04-09T06:17:45.432Z,100190.63
2023-04-09T06:20:15.233Z,100176.50
2023-04-09T06:22:43.733Z,100185.34
2023-04-09T06:25:12.005Z,100177.81
2023-04-09T06:27:40.458Z,100166.41
2023-04-09T06:30:09.679Z,100165.78
2023-04-09T06:32:46.789Z,100147.25
2023-04-09T06:35:16.990Z,100144.44
2023-04-09T06:37:45.633Z,100138.22
2023-04-09T06:40:14.082Z,100132.00
2023-04-09T06:42:42.092Z,100122.72
2023-04-09T06:45:32.612Z,100107.59
2023-04-09T06:48:01.193Z,100093.59
2023-04-09T06:50:30.836Z,100114.34
2023-04-09T06:52:58.954Z,100121.75
2023-04-09T06:55:27.950Z,100143.97
2023-04-09T06:57:56.080Z,100129.84
2023-04-09T07:00:24.531Z,100132.69
2023-04-09T07:02:53.617Z,100118.22
2023-04-09T07:05:21.753Z,100083.88
2023-04-09T07:07:51.600Z,100093.97
2023-04-09T07:10:19.858Z,100087.09
2023-04-09T07:12:47.956Z,100062.34
2023-04-09T07:15:16.320Z,100079.34
2023-04-09T07:17:44.482Z,100076.00
2023-04-09T07:20:13.116Z,100077.03
2023-04-09T07:22:41.749Z,100073.28
2023-04-09T07:25:11.766Z,100085.78
2023-04-09T07:27:39.846Z,100068.25
2023-04-09T07:30:08.731Z,100085.97
2023-04-09T07:32:37.968Z,100082.75
2023-04-09T07:35:07.669Z,100097.41
2023-04-09T07:37:35.759Z,100095.88
2023-04-09T07:40:04.392Z,100084.91
2023-04-09T07:42:34.042Z,100092.50
2023-04-09T07:45:03.566Z,100090.78
2023-04-09T07:47:32.053Z,100089.25
2023-04-09T07:50:00.435Z,100095.81
2023-04-09T07:52:28.507Z,100099.88
2023-04-09T07:54:57.588Z,100104.22
2023-04-09T07:57:25.976Z,100106.78
2023-04-09T07:59:56.376Z,100099.84
2023-04-09T08:02:24.855Z,100107.78
2023-04-09T08:04:53.256Z,100100.84
2023-04-09T08:07:21.402Z,100102.34
2023-04-09T08:09:49.712Z,100114.16
2023-04-09T08:12:17.822Z,100115.66
2023-04-09T08:14:46.139Z,100092.69
2023-04-09T08:17:15.842Z,100086.28
2023-04-09T08:19:43.842Z,100092.16
2023-04-09T08:22:11.974Z,100084.84
2023-04-09T08:24:40.416Z,100084.53
2023-04-09T08:27:08.774Z,100079.59
2023-04-09T08:29:36.788Z,100076.34
2023-04-09T08:32:04.770Z,100076.13
2023-04-09T08:34:34.507Z,100071.25
2023-04-09T08:37:02.883Z,100075.28
2023-04-09T08:39:31.255Z,100073.22
2023-04-09T08:42:01.904Z,100072.16
2023-04-09T08:44:30.714Z,100068.41
2023-04-09T08:46:59.718Z,100062.59
2023-04-09T08:49:27.886Z,100046.69
2023-04-09T08:51:57.697Z,100043.06
2023-04-09T08:54:26.942Z,100037.09
2023-04-09T08:56:55.011Z,100019.47
2023-04-09T08:59:23.606Z,100023.69
2023-04-09T09:02:07.839Z,100049.53
2023-04-09T09:04:45.214Z,100037.97
2023-04-09T09:07:15.640Z,100028.84
2023-04-09T09:09:53.923Z,100026.97
2023-04-09T09:12:35.613Z,100028.34
2023-04-09T09:15:03.978Z,100033.78
2023-04-09T09:17:32.512Z,100009.25
2023-04-09T09:20:01.358Z,100027.91
2023-04-09T09:22:31.268Z,100026.03
2023-04-09T09:24:59.342Z,100030.22
2023-04-09T09:27:36.791Z,100020.44
2023-04-09T09:30:06.150Z,100014.56
2023-04-09T09:32:34.576Z,100013.34
2023-04-09T09:35:03.705Z,100010.94
2023-04-09T09:37:33.567Z,100009.53
2023-04-09T09:40:02.217Z,100005.16
2023-04-09T09:42:30.475Z,99998.03
2023-04-09T09:45:00.368Z,100000.50
2023-04-09T09:47:29.636Z,99985.84
2023-04-09T09:49:57.843Z,99990.16
2023-04-09T09:52:27.151Z,99984.00
2023-04-09T09:54:58.947Z,99972.16
2023-04-09T09:57:29.841Z,99966.34
2023-04-09T10:00:04.164Z,99957.22
2023-04-09T10:02:41.990Z,99950.13
2023-04-09T10:05:10.651Z,99949.00
2023-04-09T10:07:39.256Z,99952.38
2023-04-09T10:10:10.410Z,99945.44
2023-04-09T10:12:38.882Z,99945.06
2023-04-09T10:15:07.574Z,99946.94
2023-04-09T10:17:35.742Z,99930.16
2023-04-09T10:20:08.897Z,99932.19
2023-04-09T10:22:38.011Z,99930.06
2023-04-09T10:25:06.781Z,99929.69
2023-04-09T10:27:36.700Z,99942.56
2023-04-09T10:30:07.768Z,99932.03
2023-04-09T10:32:37.084Z,99926.63
2023-04-09T10:35:05.466Z,99929.31
2023-04-09T10:37:33.504Z,99919.50
2023-04-09T10:40:02.300Z,99918.03
2023-04-09T10:42:31.898Z,99913.19
2023-04-09T10:45:11.284Z,99900.66
2023-04-09T10:47:40.682Z,99924.47
2023-04-09T10:50:19.006Z,99929.03
2023-04-09T10:52:47.912Z,99914.91
2023-04-09T10:55:31.797Z,99918.88
2023-04-09T10:57:59.965Z,99919.13
2023-04-09T11:00:30.284Z,99914.09
2023-04-09T11:03:23.303Z,99913.16
2023-04-09T11:06:00.254Z,99910.91
2023-04-09T11:08:32.386Z,99912.59
2023-04-09T11:11:02.084Z,99913.88
2023-04-09T11:13:31.186Z,99901.19
2023-04-09T11:16:01.651Z,99899.31
2023-04-09T11:18:30.486Z,99906.69
2023-04-09T11:20:59.572Z,99910.63
2023-04-09T11:23:28.086Z,99907.56
2023-04-09T11:25:56.624Z,99906.72
2023-04-09T11:28:25.207Z,99907.56
2023-04-09T11:30:53.239Z,99897.31
2023-04-09T11:33:23.648Z,99915.22
2023-04-09T11:35:52.290Z,99919.25
2023-04-09T11:38:20.532Z,99923.88
2023-04-09T11:40:49.540Z,99932.88
2023-04-09T11:43:18.407Z,99948.72
2023-04-09T11:45:48.354Z,99952.19
2023-04-09T11:48:18.432Z,99944.16
2023-04-09T11:50:48.440Z,99944.97
2023-04-09T11:53:17.412Z,99941.16
2023-04-09T11:55:48.248Z,99943.94
2023-04-09T11:58:16.752Z,99944.31
2023-04-09T12:00:45.481Z,99934.25
2023-04-09T12:03:16.584Z,99944.25
2023-04-09T12:05:50.645Z,99937.53
2023-04-09T12:08:24.309Z,99928.28
2023-04-09T12:10:53.963Z,99928.84
2023-04-09T12:13:22.482Z,99915.03
2023-04-09T12:15:51.637Z,99908.69
2023-04-09T12:18:22.966Z,99918.59
2023-04-09T12:20:51.180Z,99915.78
2023-04-09T12:23:20.815Z,99900.31
2023-04-09T12:25:49.255Z,99900.75
2023-04-09T12:28:18.752Z,99883.44
2023-04-09T12:30:49.221Z,99883.16
2023-04-09T12:33:17.365Z,99884.88
2023-04-09T12:35:46.454Z,99865.41
2023-04-09T12:38:14.527Z,99836.22
2023-04-09T12:40:44.408Z,99840.13
2023-04-09T12:43:12.986Z,99839.25
2023-04-09T12:45:41.241Z,99826.22
2023-04-09T12:48:09.780Z,99813.16
2023-04-09T12:50:37.866Z,99803.00
2023-04-09T12:53:06.003Z,99819.06
2023-04-09T12:55:34.359Z,99821.16
2023-04-09T12:58:03.970Z,99828.00
2023-04-09T13:00:33.510Z,99834.22
2023-04-09T13:03:01.892Z,99822.09
2023-04-09T13:05:31.623Z,99824.44
2023-04-09T13:08:00.197Z,99833.97
2023-04-09T13:10:28.574Z,99842.22
2023-04-09T13:12:56.792Z,99853.69
2023-04-09T13:15:26.451Z,99856.38
2023-04-09T13:17:54.666Z,99849.44
2023-04-09T13:20:23.480Z,99845.69
2023-04-09T13:22:52.497Z,99854.75
2023-04-09T13:25:20.616Z,99858.44
2023-04-09T13:27:48.782Z,99865.47
2023-04-09T13:30:16.799Z,99859.56
2023-04-09T13:32:46.407Z,99862.03
2023-04-09T13:35:14.727Z,99867.06
2023-04-09T13:37:43.317Z,99873.34
2023-04-09T13:40:11.776Z,99870.81
2023-04-09T13:42:40.127Z,99883.09
2023-04-09T13:45:08.544Z,99876.47
2023-04-09T13:47:36.744Z,99879.38
2023-04-09T13:50:10.306Z,99896.78
2023-04-09T13:52:38.513Z,99880.63
2023-04-09T13:55:07.692Z,99877.81
2023-04-09T13:57:35.868Z,99869.94
2023-04-09T14:00:05.506Z,99861.69
2023-04-09T14:02:34.471Z,99864.00
2023-04-09T14:05:03.820Z,99863.63
2023-04-09T14:07:33.412Z,99847.25
2023-04-09T14:10:01.426Z,99830.22
2023-04-09T14:12:29.592Z,99805.69
2023-04-09T14:14:58.135Z,99798.84
2023-04-09T14:17:26.742Z,99783.69
2023-04-09T14:19:54.784Z,99783.09
2023-04-09T14:22:22.887Z,99786.50
2023-04-09T14:24:53.382Z,99764.69
2023-04-09T14:27:21.521Z,99779.75
2023-04-09T14:29:49.750Z,99770.63
2023-04-09T14:32:18.300Z,99766.91
2023-04-09T14:34:46.410Z,99765.31
2023-04-09T14:37:14.958Z,99756.97
2023-04-09T14:39:43.374Z,99736.50
2023-04-09T14:42:13.005Z,99733.69
2023-04-09T14:44:41.590Z,99723.66
2023-04-09T14:47:10.144Z,99689.84
2023-04-09T14:49:38.293Z,99678.16
2023-04-09T14:52:06.602Z,99656.84
2023-04-09T14:54:34.923Z,99666.88
2023-04-09T14:57:03.977Z,99654.34
2023-04-09T14:59:33.433Z,99657.66
2023-04-09T15:02:02.012Z,99663.69
2023-04-09T15:04:30.547Z,99660.97
2023-04-09T15:06:58.745Z,99663.09
2023-04-09T15:09:27.215Z,99653.91
2023-04-09T15:11:56.151Z,99651.19
2023-04-09T15:14:24.961Z,99643.88
2023-04-09T15:16:56.047Z,99632.19
2023-04-09T15:19:24.134Z,99630.09
2023-04-09T15:21:52.249Z,99637.63
2023-04-09T15:24:20.625Z,99620.09
2023-04-09T15:26:49.836Z,99631.41
2023-04-09T15:29:18.074Z,99615.09
2023-04-09T15:31:46.548Z,99609.25
2023-04-09T15:34:16.090Z,99613.00
2023-04-09T15:36:44.179Z,99621.75
2023-04-09T15:39:12.459Z,99602.13
2023-04-09T15:41:40.737Z,99583.34
2023-04-09T15:44:09.251Z,99612.78
2023-04-09T15:46:38.757Z,99598.56
2023-04-09T15:49:06.991Z,99596.88
2023-04-09T15:51:36.524Z,99609.16
2023-04-09T15:54:04.745Z,99583.69
2023-04-09T15:56:33.102Z,99583.28
2023-04-09T15:59:02.295Z,99593.06
2023-04-09T16:01:30.825Z,99598.31
2023-04-09T16:03:59.299Z,99586.25
2023-04-09T16:06:28.057Z,99594.56
2023-04-09T16:08:57.794Z,99592.91
2023-04-09T16:11:26.282Z,99581.00
2023-04-09T16:13:56.156Z,99577.25
2023-04-09T16:16:24.615Z,99581.84
2023-04-09T16:18:53.169Z,99591.19
2023-04-09T16:21:21.672Z,99595.28
2023-04-09T16:23:50.133Z,99582.69
2023-04-09T16:26:19.702Z,99575.72
2023-04-09T16:28:47.711Z,99583.38
2023-04-09T16:31:16.431Z,99585.38
2023-04-09T16:33:44.523Z,99594.91
2023-04-09T16:36:12.713Z,99598.78
2023-04-09T16:38:41.707Z,99598.97
2023-04-09T16:41:09.862Z,99599.84
2023-04-09T16:43:39.322Z,99594.16
2023-04-09T16:46:07.989Z,99597.06
2023-04-09T16:48:37.298Z,99595.19
2023-04-09T16:51:05.803Z,99584.78
2023-04-09T16:53:33.996Z,99582.13
2023-04-09T16:56:02.040Z,99592.25
2023-04-09T16:58:30.059Z,99585.22
2023-04-09T17:00:59.684Z,99578.59
2023-04-09T17:03:27.973Z,99571.03
2023-04-09T17:05:57.290Z,99572.31
2023-04-09T17:08:25.465Z,99570.75
2023-04-09T17:10:54.924Z,99561.84
2023-04-09T17:13:23.039Z,99570.59
2023-04-09T17:15:51.373Z,99562.72
2023-04-09T17:18:21.524Z,99572.84
2023-04-09T17:20:49.596Z,99558.56
2023-04-09T17:23:17.665Z,99563.50
2023-04-09T17:25:47.179Z,99556.41
2023-04-09T17:28:16.964Z,99530.16
2023-04-09T17:30:46.879Z,99536.19
2023-04-09T17:33:15.272Z,99537.66
2023-04-09T17:35:44.874Z,99525.16
2023-04-09T17:38:17.282Z,99520.13
2023-04-09T17:40:45.411Z,99528.25
2023-04-09T17:43:14.328Z,99520.56
2023-04-09T17:45:42.593Z,99518.84
2023-04-09T17:48:11.021Z,99518.84
2023-04-09T17:50:39.923Z,99504.66
2023-04-09T17:53:09.879Z,99500.06
2023-04-09T17:55:38.266Z,99492.56
2023-04-09T17:58:06.416Z,99491.31
2023-04-09T18:00:34.553Z,99486.66
2023-04-09T18:03:03.054Z,99482.94
2023-04-09T18:05:31.447Z,99488.09
2023-04-09T18:07:59.791Z,99480.38
2023-04-09T18:10:29.411Z,99483.69
2023-04-09T18:12:57.586Z,99479.88
2023-04-09T18:15:26.081Z,99489.00
2023-04-09T18:17:54.457Z,99480.56
2023-04-09T18:20:22.871Z,99490.78
2023-04-09T18:22:52.203Z,99494.25
2023-04-09T18:25:22.276Z,99504.94
2023-04-09T18:27:51.681Z,99504.44
2023-04-09T18:30:20.481Z,99508.16
2023-04-09T18:32:49.268Z,99521.81
2023-04-09T18:35:17.457Z,99514.25
2023-04-09T18:37:45.922Z,99500.03
2023-04-09T18:40:16.014Z,99509.53
2023-04-09T18:42:44.095Z,99523.59
2023-04-09T18:45:14.493Z,99525.66
2023-04-09T18:47:43.089Z,99518.09
2023-04-09T18:50:12.470Z,99521.56
2023-04-09T18:52:40.499Z,99532.63
2023-04-09T18:55:09.503Z,99535.44
2023-04-09T18:57:37.779Z,99530.03
2023-04-09T19:00:06.587Z,99535.13
2023-04-09T19:02:36.246Z,99536.19
2023-04-09T19:05:07.236Z,99533.00
2023-04-09T19:07:36.207Z,99534.03
2023-04-09T19:10:04.287Z,99529.19
2023-04-09T19:12:32.794Z,99531.59
2023-04-09T19:15:02.052Z,99518.59
2023-04-09T19:17:30.427Z,99532.44
2023-04-09T19:19:59.995Z,99526.88
2023-04-09T19:22:28.242Z,99520.47
2023-04-09T19:24:56.442Z,99516.06
2023-04-09T19:27:24.898Z,99521.84
2023-04-09T19:29:53.333Z,99525.47
2023-04-09T19:32:21.477Z,99514.88
2023-04-09T19:34:49.655Z,99518.41
2023-04-09T19:37:19.956Z,99508.63
2023-04-09T19:39:48.048Z,99513.00
2023-04-09T19:42:16.435Z,99510.13
2023-04-09T19:44:44.919Z,99504.72
2023-04-09T19:47:13.173Z,99503.69
2023-04-09T19:49:41.810Z,99496.44
2023-04-09T19:52:09.811Z,99507.91
2023-04-09T19:54:39.629Z,99513.28
2023-04-09T19:57:08.208Z,99513.28
2023-04-09T19:59:39.889Z,99512.25
2023-04-09T20:02:08.730Z,99510.22
2023-04-09T20:04:37.116Z,99515.63
2023-04-09T20:07:05.528Z,99516.25
2023-04-09T20:09:33.600Z,99529.94
2023-04-09T20:12:07.041Z,99524.34
2023-04-09T20:14:35.157Z,99523.31
2023-04-09T20:17:03.322Z,99521.94
2023-04-09T20:19:31.560Z,99519.22
2023-04-09T20:22:00.437Z,99523.81
2023-04-09T20:24:28.615Z,99520.53
2023-04-09T20:26:59.556Z,99513.28
2023-04-09T20:29:29.432Z,99503.97
2023-04-09T20:31:57.829Z,99494.19
2023-04-09T20:34:27.678Z,99489.84
2023-04-09T20:36:56.720Z,99483.19
2023-04-09T20:39:27.000Z,99487.38
2023-04-09T20:41:56.740Z,99472.41
2023-04-09T20:44:24.901Z,99467.47
2023-04-09T20:46:54.687Z,99476.22
2023-04-09T20:49:22.819Z,99477.41
2023-04-09T20:51:52.026Z,99478.72
2023-04-09T20:54:22.737Z,99464.59
2023-04-09T20:56:51.380Z,99468.13
2023-04-09T20:59:19.859Z,99463.38
2023-04-09T21:01:48.468Z,99460.50
2023-04-09T21:04:18.473Z,99456.31
2023-04-09T21:06:47.933Z,99455.09
2023-04-09T21:09:16.246Z,99457.59
2023-04-09T21:11:44.664Z,99471.09
2023-04-09T21:14:14.638Z,99459.81
2023-04-09T21:16:42.798Z,99455.91
2023-04-09T21:19:11.360Z,99449.31
2023-04-09T21:21:41.229Z,99451.38
2023-04-09T21:24:09.280Z,99455.91
2023-04-09T21:26:49.890Z,99438.50
2023-04-09T21:29:19.989Z,99438.31
2023-04-09T21:31:49.040Z,99443.28
2023-04-09T21:34:17.469Z,99443.09
2023-04-09T21:36:47.677Z,99439.34
2023-04-09T21:39:15.974Z,99444.09
2023-04-09T21:41:44.249Z,99430.22
2023-04-09T21:44:13.522Z,99436.91
2023-04-09T21:46:43.083Z,99431.13
2023-04-09T21:49:11.457Z,99420.31
2023-04-09T21:51:39.671Z,99436.72
2023-04-09T21:54:10.519Z,99434.50
2023-04-09T21:56:38.717Z,99448.34
2023-04-09T21:59:06.836Z,99464.63
2023-04-09T22:01:35.452Z,99459.03
2023-04-09T22:04:04.386Z,99454.66
2023-04-09T22:06:32.828Z,99456.09
2023-04-09T22:09:01.982Z,99442.75
2023-04-09T22:11:34.222Z,99435.31
2023-04-09T22:14:02.464Z,99434.50
2023-04-09T22:16:31.006Z,99429.81
2023-04-09T22:18:59.264Z,99424.03
2023-04-09T22:21:27.807Z,99426.22
2023-04-09T22:23:56.022Z,99422.59
2023-04-09T22:26:24.206Z,99416.97
2023-04-09T22:28:53.920Z,99406.31
2023-04-09T22:31:22.960Z,99412.97
2023-04-09T22:33:51.360Z,99407.38
2023-04-09T22:36:19.925Z,99400.25
2023-04-09T22:38:48.174Z,99405.19
2023-04-09T22:41:17.744Z,99413.38
2023-04-09T22:43:45.992Z,99416.19
2023-04-09T22:46:16.457Z,99416.91
2023-04-09T22:48:46.640Z,99410.59
2023-04-09T22:51:15.632Z,99414.41
2023-04-09T22:53:43.780Z,99415.78
2023-04-09T22:56:12.744Z,99412.81
2023-04-09T22:58:41.190Z,99419.31
2023-04-09T23:01:09.434Z,99423.41
2023-04-09T23:03:39.406Z,99425.13
2023-04-09T23:06:07.672Z,99426.88
2023-04-09T23:08:35.704Z,99425.75
2023-04-09T23:11:05.399Z,99430.00
2023-04-09T23:13:33.888Z,99428.22
2023-04-09T23:16:02.260Z,99441.75
2023-04-09T23:18:30.347Z,99429.50
2023-04-09T23:20:59.774Z,99436.25
2023-04-09T23:23:28.091Z,99435.59
2023-04-09T23:25:56.760Z,99429.25
2023-04-09T23:28:25.190Z,99431.66
2023-04-09T23:30:53.307Z,99425.97
2023-04-09T23:33:21.758Z,99421.59
2023-04-09T23:35:49.876Z,99435.75
2023-04-09T23:38:19.644Z,99429.91
2023-04-09T23:40:49.543Z,99424.03
2023-04-09T23:43:17.592Z,99430.13
2023-04-09T23:45:45.835Z,99422.25
2023-04-09T23:48:13.915Z,99427.13
2023-04-09T23:50:42.807Z,99414.72
2023-04-09T23:53:11.622Z,99417.09
2023-04-09T23:55:41.730Z,99407.22
2023-04-09T23:58:10.041Z,99417.31
